sensor_id;sensor_type;location;lat;lon;timestamp;P1;durP1;ratioP1;P2;durP2;ratioP2
61505;SDS011;47366;51.916;4.574;2023-04-30T06:46:39;3.72;;;2.20;;
61505;SDS011;47366;51.916;4.574;2023-04-30T06:49:05;4.03;;;1.67;;
61505;SDS011;47366;51.916;4.574;2023-04-30T06:51:30;5.20;;;2.38;;
61505;SDS011;47366;51.916;4.574;2023-04-30T06:53:55;3.70;;;2.10;;
61505;SDS011;47366;51.916;4.574;2023-04-30T06:56:21;2.88;;;1.77;;
61505;SDS011;47366;51.916;4.574;2023-04-30T06:58:46;2.42;;;1.95;;
61505;SDS011;47366;51.916;4.574;2023-04-30T07:01:11;5.55;;;1.88;;
61505;SDS011;47366;51.916;4.574;2023-04-30T07:03:37;6.07;;;2.15;;
61505;SDS011;47366;51.916;4.574;2023-04-30T07:06:03;4.35;;;2.40;;
61505;SDS011;47366;51.916;4.574;2023-04-30T07:08:28;3.60;;;1.92;;
61505;SDS011;47366;51.916;4.574;2023-04-30T07:10:53;3.67;;;2.20;;
61505;SDS011;47366;51.916;4.574;2023-04-30T07:13:19;3.80;;;2.17;;
61505;SDS011;47366;51.916;4.574;2023-04-30T07:15:44;4.38;;;2.17;;
61505;SDS011;47366;51.916;4.574;2023-04-30T07:18:09;3.25;;;2.10;;
61505;SDS011;47366;51.916;4.574;2023-04-30T07:20:35;3.20;;;1.95;;
61505;SDS011;47366;51.916;4.574;2023-04-30T07:23:00;4.28;;;2.35;;
61505;SDS011;47366;51.916;4.574;2023-04-30T07:25:26;8.30;;;2.40;;
61505;SDS011;47366;51.916;4.574;2023-04-30T07:27:51;3.67;;;2.40;;
61505;SDS011;47366;51.916;4.574;2023-04-30T07:30:17;2.78;;;1.95;;
61505;SDS011;47366;51.916;4.574;2023-04-30T07:32:42;4.00;;;2.30;;
61505;SDS011;47366;51.916;4.574;2023-04-30T07:35:08;4.82;;;2.40;;
61505;SDS011;47366;51.916;4.574;2023-04-30T07:37:34;3.20;;;1.90;;
61505;SDS011;47366;51.916;4.574;2023-04-30T07:39:59;3.33;;;1.92;;
61505;SDS011;47366;51.916;4.574;2023-04-30T07:42:24;5.05;;;2.22;;
61505;SDS011;47366;51.916;4.574;2023-04-30T07:44:50;3.58;;;2.10;;
61505;SDS011;47366;51.916;4.574;2023-04-30T07:47:16;3.08;;;1.90;;
61505;SDS011;47366;51.916;4.574;2023-04-30T07:49:42;4.70;;;2.05;;
61505;SDS011;47366;51.916;4.574;2023-04-30T07:52:07;3.90;;;2.00;;
61505;SDS011;47366;51.916;4.574;2023-04-30T07:54:35;3.35;;;1.75;;
61505;SDS011;47366;51.916;4.574;2023-04-30T07:57:02;3.67;;;2.13;;
61505;SDS011;47366;51.916;4.574;2023-04-30T07:59:28;5.40;;;2.05;;
61505;SDS011;47366;51.916;4.574;2023-04-30T08:01:53;5.63;;;2.38;;
61505;SDS011;47366;51.916;4.574;2023-04-30T08:04:19;4.10;;;2.33;;
61505;SDS011;47366;51.916;4.574;2023-04-30T08:06:44;4.72;;;2.67;;
61505;SDS011;47366;51.916;4.574;2023-04-30T08:09:09;5.95;;;2.53;;
61505;SDS011;47366;51.916;4.574;2023-04-30T08:11:35;3.50;;;2.08;;
61505;SDS011;47366;51.916;4.574;2023-04-30T08:14:00;3.83;;;2.33;;
61505;SDS011;47366;51.916;4.574;2023-04-30T08:16:25;3.72;;;2.15;;
61505;SDS011;47366;51.916;4.574;2023-04-30T08:18:51;5.65;;;2.92;;
61505;SDS011;47366;51.916;4.574;2023-04-30T08:21:16;4.88;;;2.55;;
61505;SDS011;47366;51.916;4.574;2023-04-30T08:23:42;4.32;;;2.00;;
61505;SDS011;47366;51.916;4.574;2023-04-30T08:26:07;4.78;;;2.45;;
61505;SDS011;47366;51.916;4.574;2023-04-30T08:28:33;3.60;;;1.85;;
61505;SDS011;47366;51.916;4.574;2023-04-30T08:30:58;3.60;;;2.00;;
61505;SDS011;47366;51.916;4.574;2023-04-30T08:33:23;4.43;;;2.30;;
61505;SDS011;47366;51.916;4.574;2023-04-30T08:35:49;4.45;;;2.20;;
61505;SDS011;47366;51.916;4.574;2023-04-30T08:38:15;3.95;;;2.17;;
61505;SDS011;47366;51.916;4.574;2023-04-30T08:40:40;4.13;;;2.53;;
61505;SDS011;47366;51.916;4.574;2023-04-30T08:43:08;4.80;;;2.55;;
61505;SDS011;47366;51.916;4.574;2023-04-30T08:45:35;3.58;;;2.10;;
61505;SDS011;47366;51.916;4.574;2023-04-30T08:48:03;4.93;;;2.35;;
61505;SDS011;47366;51.916;4.574;2023-04-30T08:50:29;4.75;;;2.03;;
61505;SDS011;47366;51.916;4.574;2023-04-30T08:52:56;3.85;;;2.00;;
61505;SDS011;47366;51.916;4.574;2023-04-30T08:55:23;3.50;;;2.05;;
61505;SDS011;47366;51.916;4.574;2023-04-30T08:57:51;5.15;;;2.13;;
61505;SDS011;47366;51.916;4.574;2023-04-30T09:00:18;3.28;;;1.52;;
61505;SDS011;47366;51.916;4.574;2023-04-30T09:02:43;2.83;;;1.90;;
61505;SDS011;47366;51.916;4.574;2023-04-30T09:05:11;3.65;;;1.80;;
61505;SDS011;47366;51.916;4.574;2023-04-30T09:07:39;3.35;;;2.03;;
61505;SDS011;47366;51.916;4.574;2023-04-30T09:10:30;3.33;;;1.80;;
61505;SDS011;47366;51.916;4.574;2023-04-30T09:15:25;2.65;;;1.73;;
61505;SDS011;47366;51.916;4.574;2023-04-30T09:18:04;3.20;;;2.13;;
61505;SDS011;47366;51.916;4.574;2023-04-30T09:20:36;3.53;;;1.92;;
61505;SDS011;47366;51.916;4.574;2023-04-30T09:23:17;3.30;;;2.08;;
61505;SDS011;47366;51.916;4.574;2023-04-30T09:25:42;3.30;;;1.92;;
61505;SDS011;47366;51.916;4.574;2023-04-30T09:30:35;3.03;;;1.77;;
61505;SDS011;47366;51.916;4.574;2023-04-30T09:33:01;4.18;;;2.00;;
61505;SDS011;47366;51.916;4.574;2023-04-30T09:35:30;5.10;;;1.98;;
61505;SDS011;47366;51.916;4.574;2023-04-30T09:37:58;3.90;;;1.65;;
61505;SDS011;47366;51.916;4.574;2023-04-30T09:40:34;4.85;;;2.35;;
61505;SDS011;47366;51.916;4.574;2023-04-30T09:43:01;5.45;;;2.17;;
61505;SDS011;47366;51.916;4.574;2023-04-30T09:45:43;3.42;;;1.85;;
61505;SDS011;47366;51.916;4.574;2023-04-30T09:48:20;2.35;;;1.67;;
61505;SDS011;47366;51.916;4.574;2023-04-30T09:50:47;4.47;;;2.33;;
61505;SDS011;47366;51.916;4.574;2023-04-30T09:53:13;3.88;;;2.15;;
61505;SDS011;47366;51.916;4.574;2023-04-30T09:55:43;4.93;;;2.78;;
61505;SDS011;47366;51.916;4.574;2023-04-30T09:58:10;4.80;;;2.30;;
61505;SDS011;47366;51.916;4.574;2023-04-30T10:00:37;4.18;;;2.20;;
61505;SDS011;47366;51.916;4.574;2023-04-30T10:03:06;4.05;;;2.33;;
61505;SDS011;47366;51.916;4.574;2023-04-30T10:05:39;3.72;;;1.90;;
61505;SDS011;47366;51.916;4.574;2023-04-30T10:08:09;5.97;;;2.23;;
61505;SDS011;47366;51.916;4.574;2023-04-30T10:10:42;3.85;;;1.98;;
61505;SDS011;47366;51.916;4.574;2023-04-30T10:13:10;4.40;;;2.58;;
61505;SDS011;47366;51.916;4.574;2023-04-30T10:15:42;5.65;;;2.25;;
61505;SDS011;47366;51.916;4.574;2023-04-30T10:18:16;4.22;;;2.22;;
61505;SDS011;47366;51.916;4.574;2023-04-30T10:20:50;4.03;;;2.50;;
61505;SDS011;47366;51.916;4.574;2023-04-30T10:23:18;3.30;;;1.88;;
61505;SDS011;47366;51.916;4.574;2023-04-30T10:25:45;3.30;;;1.98;;
61505;SDS011;47366;51.916;4.574;2023-04-30T10:28:11;2.97;;;1.88;;
61505;SDS011;47366;51.916;4.574;2023-04-30T10:30:37;3.55;;;2.08;;
61505;SDS011;47366;51.916;4.574;2023-04-30T10:33:18;2.80;;;1.83;;
61505;SDS011;47366;51.916;4.574;2023-04-30T10:35:52;4.95;;;2.00;;
61505;SDS011;47366;51.916;4.574;2023-04-30T10:38:23;2.88;;;1.70;;
61505;SDS011;47366;51.916;4.574;2023-04-30T10:40:54;4.75;;;1.63;;
61505;SDS011;47366;51.916;4.574;2023-04-30T10:43:25;2.80;;;1.30;;
61505;SDS011;47366;51.916;4.574;2023-04-30T10:45:51;3.58;;;1.80;;
61505;SDS011;47366;51.916;4.574;2023-04-30T10:48:17;3.92;;;1.77;;
61505;SDS011;47366;51.916;4.574;2023-04-30T10:50:51;2.75;;;1.42;;
61505;SDS011;47366;51.916;4.574;2023-04-30T10:53:19;3.13;;;1.75;;
61505;SDS011;47366;51.916;4.574;2023-04-30T11:03:33;3.25;;;1.40;;
61505;SDS011;47366;51.916;4.574;2023-04-30T11:05:59;2.00;;;1.50;;
61505;SDS011;47366;51.916;4.574;2023-04-30T11:08:35;7.28;;;1.85;;
61505;SDS011;47366;51.916;4.574;2023-04-30T11:11:01;2.53;;;1.65;;
61505;SDS011;47366;51.916;4.574;2023-04-30T11:13:37;3.92;;;1.73;;
61505;SDS011;47366;51.916;4.574;2023-04-30T11:16:04;4.72;;;1.95;;
61505;SDS011;47366;51.916;4.574;2023-04-30T11:18:30;3.42;;;1.70;;
61505;SDS011;47366;51.916;4.574;2023-04-30T11:20:56;4.15;;;1.73;;
61505;SDS011;47366;51.916;4.574;2023-04-30T11:23:22;3.72;;;1.98;;
61505;SDS011;47366;51.916;4.574;2023-04-30T11:25:52;2.00;;;1.40;;
61505;SDS011;47366;51.916;4.574;2023-04-30T11:28:23;3.10;;;1.90;;
61505;SDS011;47366;51.916;4.574;2023-04-30T11:30:56;4.07;;;1.90;;
61505;SDS011;47366;51.916;4.574;2023-04-30T11:33:23;4.72;;;2.05;;
61505;SDS011;47366;51.916;4.574;2023-04-30T11:35:51;3.08;;;1.98;;
61505;SDS011;47366;51.916;4.574;2023-04-30T11:38:18;4.15;;;2.13;;
61505;SDS011;47366;51.916;4.574;2023-04-30T11:40:50;4.35;;;2.13;;
61505;SDS011;47366;51.916;4.574;2023-04-30T11:43:29;3.72;;;2.25;;
61505;SDS011;47366;51.916;4.574;2023-04-30T11:45:59;3.45;;;1.63;;
61505;SDS011;47366;51.916;4.574;2023-04-30T11:48:30;3.03;;;1.92;;
61505;SDS011;47366;51.916;4.574;2023-04-30T11:51:01;3.42;;;1.92;;
61505;SDS011;47366;51.916;4.574;2023-04-30T11:53:48;3.75;;;2.08;;
61505;SDS011;47366;51.916;4.574;2023-04-30T11:56:19;3.33;;;1.88;;
61505;SDS011;47366;51.916;4.574;2023-04-30T11:58:50;4.20;;;2.35;;
61505;SDS011;47366;51.916;4.574;2023-04-30T12:01:17;4.47;;;2.08;;
61505;SDS011;47366;51.916;4.574;2023-04-30T12:03:45;4.00;;;2.42;;
61505;SDS011;47366;51.916;4.574;2023-04-30T12:06:22;4.55;;;2.13;;
61505;SDS011;47366;51.916;4.574;2023-04-30T12:08:50;6.40;;;2.35;;
61505;SDS011;47366;51.916;4.574;2023-04-30T12:11:24;4.18;;;2.20;;
61505;SDS011;47366;51.916;4.574;2023-04-30T12:14:07;4.03;;;2.47;;
61505;SDS011;47366;51.916;4.574;2023-04-30T12:19:13;4.35;;;2.55;;
61505;SDS011;47366;51.916;4.574;2023-04-30T12:21:40;3.13;;;1.83;;
61505;SDS011;47366;51.916;4.574;2023-04-30T12:24:09;3.85;;;2.08;;
61505;SDS011;47366;51.916;4.574;2023-04-30T12:26:36;2.85;;;1.63;;
61505;SDS011;47366;51.916;4.574;2023-04-30T12:29:04;2.67;;;1.83;;
61505;SDS011;47366;51.916;4.574;2023-04-30T12:31:32;3.25;;;1.73;;
61505;SDS011;47366;51.916;4.574;2023-04-30T12:34:02;3.97;;;2.25;;
61505;SDS011;47366;51.916;4.574;2023-04-30T12:36:28;4.43;;;2.28;;
61505;SDS011;47366;51.916;4.574;2023-04-30T12:39:02;3.50;;;2.20;;
61505;SDS011;47366;51.916;4.574;2023-04-30T12:41:28;4.28;;;1.77;;
61505;SDS011;47366;51.916;4.574;2023-04-30T12:44:12;3.40;;;1.83;;
61505;SDS011;47366;51.916;4.574;2023-04-30T12:46:41;2.95;;;1.63;;
61505;SDS011;47366;51.916;4.574;2023-04-30T12:49:07;3.15;;;1.55;;
61505;SDS011;47366;51.916;4.574;2023-04-30T12:51:35;2.72;;;1.45;;
61505;SDS011;47366;51.916;4.574;2023-04-30T12:54:04;3.08;;;1.40;;
61505;SDS011;47366;51.916;4.574;2023-04-30T12:56:29;2.00;;;1.20;;
61505;SDS011;47366;51.916;4.574;2023-04-30T12:58:55;2.20;;;1.38;;
61505;SDS011;47366;51.916;4.574;2023-04-30T13:01:21;2.58;;;1.50;;
61505;SDS011;47366;51.916;4.574;2023-04-30T13:03:49;4.18;;;1.65;;
61505;SDS011;47366;51.916;4.574;2023-04-30T13:06:16;1.50;;;1.13;;
61505;SDS011;47366;51.916;4.574;2023-04-30T13:08:42;2.13;;;1.23;;
61505;SDS011;47366;51.916;4.574;2023-04-30T13:11:08;1.58;;;1.05;;
61505;SDS011;47366;51.916;4.574;2023-04-30T13:13:34;3.00;;;1.50;;
61505;SDS011;47366;51.916;4.574;2023-04-30T13:15:59;2.25;;;1.40;;
61505;SDS011;47366;51.916;4.574;2023-04-30T13:18:24;1.48;;;1.17;;
61505;SDS011;47366;51.916;4.574;2023-04-30T13:20:50;4.65;;;1.30;;
61505;SDS011;47366;51.916;4.574;2023-04-30T13:23:16;1.83;;;1.30;;
61505;SDS011;47366;51.916;4.574;2023-04-30T13:25:42;1.58;;;1.13;;
61505;SDS011;47366;51.916;4.574;2023-04-30T13:28:07;1.50;;;1.13;;
61505;SDS011;47366;51.916;4.574;2023-04-30T13:30:33;1.65;;;1.05;;
61505;SDS011;47366;51.916;4.574;2023-04-30T13:32:59;3.15;;;1.15;;
61505;SDS011;47366;51.916;4.574;2023-04-30T13:35:25;1.90;;;1.08;;
61505;SDS011;47366;51.916;4.574;2023-04-30T13:37:51;1.48;;;1.08;;
61505;SDS011;47366;51.916;4.574;2023-04-30T13:40:17;1.30;;;1.00;;
61505;SDS011;47366;51.916;4.574;2023-04-30T13:42:44;2.28;;;1.00;;
61505;SDS011;47366;51.916;4.574;2023-04-30T13:45:10;1.80;;;1.20;;
61505;SDS011;47366;51.916;4.574;2023-04-30T13:47:36;2.47;;;1.20;;
61505;SDS011;47366;51.916;4.574;2023-04-30T13:50:02;2.58;;;1.40;;
61505;SDS011;47366;51.916;4.574;2023-04-30T13:52:28;3.00;;;1.42;;
61505;SDS011;47366;51.916;4.574;2023-04-30T13:54:53;5.32;;;3.22;;
61505;SDS011;47366;51.916;4.574;2023-04-30T13:57:19;2.85;;;1.98;;
61505;SDS011;47366;51.916;4.574;2023-04-30T13:59:44;1.65;;;1.10;;
61505;SDS011;47366;51.916;4.574;2023-04-30T14:02:09;1.55;;;0.95;;
61505;SDS011;47366;51.916;4.574;2023-04-30T14:04:35;1.83;;;1.10;;
61505;SDS011;47366;51.916;4.574;2023-04-30T14:07:02;2.03;;;1.10;;
61505;SDS011;47366;51.916;4.574;2023-04-30T14:09:28;1.02;;;0.77;;
61505;SDS011;47366;51.916;4.574;2023-04-30T14:11:54;2.08;;;1.10;;
61505;SDS011;47366;51.916;4.574;2023-04-30T14:14:22;2.05;;;1.10;;
61505;SDS011;47366;51.916;4.574;2023-04-30T14:16:51;2.60;;;1.13;;
61505;SDS011;47366;51.916;4.574;2023-04-30T14:19:17;1.35;;;0.98;;
61505;SDS011;47366;51.916;4.574;2023-04-30T14:21:42;2.08;;;1.15;;
61505;SDS011;47366;51.916;4.574;2023-04-30T14:24:08;2.75;;;1.25;;
61505;SDS011;47366;51.916;4.574;2023-04-30T14:26:36;1.98;;;1.10;;
61505;SDS011;47366;51.916;4.574;2023-04-30T14:29:02;1.58;;;0.80;;
61505;SDS011;47366;51.916;4.574;2023-04-30T14:31:27;3.33;;;1.05;;
61505;SDS011;47366;51.916;4.574;2023-04-30T14:33:52;2.25;;;1.20;;
61505;SDS011;47366;51.916;4.574;2023-04-30T14:36:18;2.53;;;1.08;;
61505;SDS011;47366;51.916;4.574;2023-04-30T14:38:43;1.23;;;0.88;;
61505;SDS011;47366;51.916;4.574;2023-04-30T14:41:08;1.65;;;0.98;;
61505;SDS011;47366;51.916;4.574;2023-04-30T14:43:34;1.92;;;0.98;;
61505;SDS011;47366;51.916;4.574;2023-04-30T14:45:59;1.33;;;0.98;;
61505;SDS011;47366;51.916;4.574;2023-04-30T14:48:25;1.60;;;0.95;;
61505;SDS011;47366;51.916;4.574;2023-04-30T14:50:50;9.38;;;3.80;;
61505;SDS011;47366;51.916;4.574;2023-04-30T14:53:16;9.50;;;3.33;;
61505;SDS011;47366;51.916;4.574;2023-04-30T14:55:41;3.75;;;2.03;;
61505;SDS011;47366;51.916;4.574;2023-04-30T14:58:07;2.47;;;1.60;;
61505;SDS011;47366;51.916;4.574;2023-04-30T15:00:32;12.90;;;6.05;;
61505;SDS011;47366;51.916;4.574;2023-04-30T15:02:58;4.65;;;2.33;;
61505;SDS011;47366;51.916;4.574;2023-04-30T15:05:23;2.03;;;1.25;;
61505;SDS011;47366;51.916;4.574;2023-04-30T15:07:49;3.92;;;1.80;;
61505;SDS011;47366;51.916;4.574;2023-04-30T15:10:15;1.90;;;1.15;;
61505;SDS011;47366;51.916;4.574;2023-04-30T15:12:41;1.70;;;0.90;;
61505;SDS011;47366;51.916;4.574;2023-04-30T15:15:06;2.42;;;0.82;;
61505;SDS011;47366;51.916;4.574;2023-04-30T15:17:32;0.52;;;0.47;;
61505;SDS011;47366;51.916;4.574;2023-04-30T15:20:01;1.17;;;0.80;;
61505;SDS011;47366;51.916;4.574;2023-04-30T15:22:29;2.25;;;0.75;;
61505;SDS011;47366;51.916;4.574;2023-04-30T15:24:55;0.95;;;0.68;;
61505;SDS011;47366;51.916;4.574;2023-04-30T15:27:21;0.82;;;0.70;;
61505;SDS011;47366;51.916;4.574;2023-04-30T15:29:47;2.05;;;0.93;;
61505;SDS011;47366;51.916;4.574;2023-04-30T15:32:12;1.10;;;0.60;;
61505;SDS011;47366;51.916;4.574;2023-04-30T15:34:38;18.08;;;2.85;;
61505;SDS011;47366;51.916;4.574;2023-04-30T15:37:03;1.90;;;0.82;;
61505;SDS011;47366;51.916;4.574;2023-04-30T15:39:29;8.93;;;1.60;;
61505;SDS011;47366;51.916;4.574;2023-04-30T15:41:55;1.58;;;0.90;;
61505;SDS011;47366;51.916;4.574;2023-04-30T15:44:20;1.65;;;0.80;;
61505;SDS011;47366;51.916;4.574;2023-04-30T15:46:46;1.50;;;0.95;;
61505;SDS011;47366;51.916;4.574;2023-04-30T15:49:11;1.38;;;0.93;;
61505;SDS011;47366;51.916;4.574;2023-04-30T15:51:37;1.75;;;0.85;;
61505;SDS011;47366;51.916;4.574;2023-04-30T15:54:02;3.17;;;0.77;;
61505;SDS011;47366;51.916;4.574;2023-04-30T15:56:34;1.40;;;0.65;;
61505;SDS011;47366;51.916;4.574;2023-04-30T15:58:59;1.63;;;0.70;;
61505;SDS011;47366;51.916;4.574;2023-04-30T16:01:25;0.82;;;0.50;;
61505;SDS011;47366;51.916;4.574;2023-04-30T16:03:50;1.02;;;0.60;;
61505;SDS011;47366;51.916;4.574;2023-04-30T16:06:16;1.10;;;0.60;;
61505;SDS011;47366;51.916;4.574;2023-04-30T16:08:42;0.57;;;0.43;;
61505;SDS011;47366;51.916;4.574;2023-04-30T16:11:08;1.35;;;0.85;;
61505;SDS011;47366;51.916;4.574;2023-04-30T16:13:34;1.02;;;0.70;;
61505;SDS011;47366;51.916;4.574;2023-04-30T16:16:00;2.28;;;1.10;;
61505;SDS011;47366;51.916;4.574;2023-04-30T16:18:26;1.80;;;0.73;;
61505;SDS011;47366;51.916;4.574;2023-04-30T16:20:53;1.63;;;0.65;;
61505;SDS011;47366;51.916;4.574;2023-04-30T16:23:19;0.75;;;0.50;;
61505;SDS011;47366;51.916;4.574;2023-04-30T16:25:44;1.20;;;0.70;;
61505;SDS011;47366;51.916;4.574;2023-04-30T16:28:10;0.73;;;0.60;;
61505;SDS011;47366;51.916;4.574;2023-04-30T16:30:35;1.08;;;0.50;;
61505;SDS011;47366;51.916;4.574;2023-04-30T16:33:01;0.98;;;0.60;;
61505;SDS011;47366;51.916;4.574;2023-04-30T16:35:26;0.43;;;0.43;;
61505;SDS011;47366;51.916;4.574;2023-04-30T16:37:52;1.17;;;0.30;;
61505;SDS011;47366;51.916;4.574;2023-04-30T16:40:18;0.38;;;0.25;;
61505;SDS011;47366;51.916;4.574;2023-04-30T16:42:43;1.30;;;0.43;;
61505;SDS011;47366;51.916;4.574;2023-04-30T16:45:09;2.83;;;0.50;;
61505;SDS011;47366;51.916;4.574;2023-04-30T16:47:34;0.40;;;0.40;;
61505;SDS011;47366;51.916;4.574;2023-04-30T16:50:00;0.60;;;0.50;;
61505;SDS011;47366;51.916;4.574;2023-04-30T16:52:26;0.80;;;0.47;;
61505;SDS011;47366;51.916;4.574;2023-04-30T16:54:52;1.45;;;0.70;;
61505;SDS011;47366;51.916;4.574;2023-04-30T16:57:18;0.60;;;0.47;;
61505;SDS011;47366;51.916;4.574;2023-04-30T16:59:43;0.65;;;0.40;;
61505;SDS011;47366;51.916;4.574;2023-04-30T17:02:10;0.57;;;0.47;;
61505;SDS011;47366;51.916;4.574;2023-04-30T17:04:35;1.63;;;0.88;;
61505;SDS011;47366;51.916;4.574;2023-04-30T17:07:01;1.35;;;0.95;;
61505;SDS011;47366;51.916;4.574;2023-04-30T17:09:27;1.48;;;0.80;;
61505;SDS011;47366;51.916;4.574;2023-04-30T17:11:53;1.08;;;0.80;;
61505;SDS011;47366;51.916;4.574;2023-04-30T17:14:19;1.00;;;0.75;;
61505;SDS011;47366;51.916;4.574;2023-04-30T17:16:44;2.92;;;0.68;;
61505;SDS011;47366;51.916;4.574;2023-04-30T17:19:10;1.33;;;0.50;;
61505;SDS011;47366;51.916;4.574;2023-04-30T17:21:36;1.52;;;0.68;;
61505;SDS011;47366;51.916;4.574;2023-04-30T17:24:01;0.40;;;0.38;;
61505;SDS011;47366;51.916;4.574;2023-04-30T17:26:27;2.88;;;0.65;;
61505;SDS011;47366;51.916;4.574;2023-04-30T17:28:53;0.70;;;0.50;;
61505;SDS011;47366;51.916;4.574;2023-04-30T17:31:18;2.00;;;0.90;;
61505;SDS011;47366;51.916;4.574;2023-04-30T17:33:43;1.52;;;0.60;;
61505;SDS011;47366;51.916;4.574;2023-04-30T17:36:09;0.77;;;0.55;;
61505;SDS011;47366;51.916;4.574;2023-04-30T17:38:36;0.43;;;0.40;;
61505;SDS011;47366;51.916;4.574;2023-04-30T17:41:01;1.20;;;0.50;;
61505;SDS011;47366;51.916;4.574;2023-04-30T17:43:27;0.88;;;0.50;;
61505;SDS011;47366;51.916;4.574;2023-04-30T17:45:53;2.38;;;0.70;;
61505;SDS011;47366;51.916;4.574;2023-04-30T17:48:20;3.25;;;0.80;;
61505;SDS011;47366;51.916;4.574;2023-04-30T17:50:45;1.60;;;0.52;;
61505;SDS011;47366;51.916;4.574;2023-04-30T17:53:11;1.13;;;0.55;;
61505;SDS011;47366;51.916;4.574;2023-04-30T17:55:36;0.30;;;0.30;;
61505;SDS011;47366;51.916;4.574;2023-04-30T17:58:02;0.90;;;0.60;;
61505;SDS011;47366;51.916;4.574;2023-04-30T18:00:28;0.60;;;0.40;;
61505;SDS011;47366;51.916;4.574;2023-04-30T18:02:54;0.38;;;0.30;;
61505;SDS011;47366;51.916;4.574;2023-04-30T18:05:19;0.40;;;0.40;;
61505;SDS011;47366;51.916;4.574;2023-04-30T18:07:45;0.73;;;0.47;;
61505;SDS011;47366;51.916;4.574;2023-04-30T18:10:11;1.45;;;0.85;;
61505;SDS011;47366;51.916;4.574;2023-04-30T18:12:36;0.30;;;0.30;;
61505;SDS011;47366;51.916;4.574;2023-04-30T18:15:02;0.65;;;0.38;;
61505;SDS011;47366;51.916;4.574;2023-04-30T18:17:29;0.95;;;0.60;;
61505;SDS011;47366;51.916;4.574;2023-04-30T18:19:55;0.68;;;0.40;;
61505;SDS011;47366;51.916;4.574;2023-04-30T18:22:20;1.30;;;0.57;;
61505;SDS011;47366;51.916;4.574;2023-04-30T18:24:46;1.38;;;0.30;;
61505;SDS011;47366;51.916;4.574;2023-04-30T18:27:11;1.00;;;0.50;;
61505;SDS011;47366;51.916;4.574;2023-04-30T18:29:37;1.30;;;0.55;;
61505;SDS011;47366;51.916;4.574;2023-04-30T18:32:02;1.48;;;0.80;;
61505;SDS011;47366;51.916;4.574;2023-04-30T18:34:27;0.60;;;0.45;;
61505;SDS011;47366;51.916;4.574;2023-04-30T18:36:53;0.88;;;0.50;;
61505;SDS011;47366;51.916;4.574;2023-04-30T18:39:19;1.10;;;0.47;;
61505;SDS011;47366;51.916;4.574;2023-04-30T18:41:46;0.43;;;0.30;;
61505;SDS011;47366;51.916;4.574;2023-04-30T18:44:11;1.63;;;0.50;;
61505;SDS011;47366;51.916;4.574;2023-04-30T18:46:37;0.45;;;0.32;;
61505;SDS011;47366;51.916;4.574;2023-04-30T18:49:03;0.65;;;0.60;;
61505;SDS011;47366;51.916;4.574;2023-04-30T18:51:29;0.60;;;0.45;;
61505;SDS011;47366;51.916;4.574;2023-04-30T18:53:55;1.08;;;0.60;;
61505;SDS011;47366;51.916;4.574;2023-04-30T18:56:21;1.13;;;0.60;;
61505;SDS011;47366;51.916;4.574;2023-04-30T18:58:47;0.57;;;0.40;;
61505;SDS011;47366;51.916;4.574;2023-04-30T19:01:12;0.63;;;0.35;;
61505;SDS011;47366;51.916;4.574;2023-04-30T19:03:38;0.57;;;0.40;;
61505;SDS011;47366;51.916;4.574;2023-04-30T19:06:04;0.68;;;0.57;;
61505;SDS011;47366;51.916;4.574;2023-04-30T19:08:30;1.33;;;0.80;;
61505;SDS011;47366;51.916;4.574;2023-04-30T19:10:55;1.13;;;0.73;;
61505;SDS011;47366;51.916;4.574;2023-04-30T19:13:21;0.57;;;0.45;;
61505;SDS011;47366;51.916;4.574;2023-04-30T19:15:47;1.33;;;0.52;;
61505;SDS011;47366;51.916;4.574;2023-04-30T19:18:13;0.82;;;0.55;;
61505;SDS011;47366;51.916;4.574;2023-04-30T19:20:40;1.92;;;0.80;;
61505;SDS011;47366;51.916;4.574;2023-04-30T19:23:06;2.10;;;0.55;;
61505;SDS011;47366;51.916;4.574;2023-04-30T19:25:33;1.10;;;0.75;;
61505;SDS011;47366;51.916;4.574;2023-04-30T19:28:00;1.33;;;0.63;;
61505;SDS011;47366;51.916;4.574;2023-04-30T19:30:25;3.05;;;0.85;;
61505;SDS011;47366;51.916;4.574;2023-04-30T19:32:51;2.47;;;0.95;;
61505;SDS011;47366;51.916;4.574;2023-04-30T19:35:16;1.95;;;0.73;;
61505;SDS011;47366;51.916;4.574;2023-04-30T19:37:42;0.68;;;0.60;;
61505;SDS011;47366;51.916;4.574;2023-04-30T19:40:08;1.88;;;0.68;;
61505;SDS011;47366;51.916;4.574;2023-04-30T19:42:37;0.60;;;0.50;;
61505;SDS011;47366;51.916;4.574;2023-04-30T19:45:04;1.23;;;0.70;;
61505;SDS011;47366;51.916;4.574;2023-04-30T19:47:33;1.15;;;0.70;;
61505;SDS011;47366;51.916;4.574;2023-04-30T19:50:00;1.30;;;0.70;;
61505;SDS011;47366;51.916;4.574;2023-04-30T19:52:25;0.85;;;0.70;;
61505;SDS011;47366;51.916;4.574;2023-04-30T19:54:50;0.88;;;0.60;;
61505;SDS011;47366;51.916;4.574;2023-04-30T19:57:16;1.35;;;0.88;;
61505;SDS011;47366;51.916;4.574;2023-04-30T19:59:42;1.83;;;0.80;;
61505;SDS011;47366;51.916;4.574;2023-04-30T20:02:08;0.85;;;0.60;;
61505;SDS011;47366;51.916;4.574;2023-04-30T20:04:35;2.72;;;0.80;;
61505;SDS011;47366;51.916;4.574;2023-04-30T20:07:00;1.58;;;0.93;;
61505;SDS011;47366;51.916;4.574;2023-04-30T20:09:26;1.65;;;0.77;;
61505;SDS011;47366;51.916;4.574;2023-04-30T20:11:51;1.45;;;0.68;;
61505;SDS011;47366;51.916;4.574;2023-04-30T20:14:18;1.40;;;0.93;;
61505;SDS011;47366;51.916;4.574;2023-04-30T20:16:43;2.25;;;0.90;;
61505;SDS011;47366;51.916;4.574;2023-04-30T20:19:09;1.40;;;0.90;;
61505;SDS011;47366;51.916;4.574;2023-04-30T20:21:36;1.38;;;0.68;;
61505;SDS011;47366;51.916;4.574;2023-04-30T20:24:01;1.73;;;0.90;;
61505;SDS011;47366;51.916;4.574;2023-04-30T20:26:28;0.93;;;0.63;;
61505;SDS011;47366;51.916;4.574;2023-04-30T20:28:53;1.05;;;0.80;;
61505;SDS011;47366;51.916;4.574;2023-04-30T20:31:19;1.88;;;0.82;;
61505;SDS011;47366;51.916;4.574;2023-04-30T20:33:45;1.73;;;0.82;;
61505;SDS011;47366;51.916;4.574;2023-04-30T20:36:10;1.67;;;0.90;;
61505;SDS011;47366;51.916;4.574;2023-04-30T20:38:36;1.15;;;0.63;;
61505;SDS011;47366;51.916;4.574;2023-04-30T20:41:01;3.85;;;0.80;;
61505;SDS011;47366;51.916;4.574;2023-04-30T20:43:27;0.68;;;0.55;;
61505;SDS011;47366;51.916;4.574;2023-04-30T20:45:54;1.50;;;0.77;;
61505;SDS011;47366;51.916;4.574;2023-04-30T20:48:21;1.33;;;0.63;;
61505;SDS011;47366;51.916;4.574;2023-04-30T20:50:46;2.05;;;0.93;;
61505;SDS011;47366;51.916;4.574;2023-04-30T20:53:11;1.88;;;0.80;;
61505;SDS011;47366;51.916;4.574;2023-04-30T20:55:38;1.10;;;0.60;;
61505;SDS011;47366;51.916;4.574;2023-04-30T20:58:04;2.33;;;0.70;;
61505;SDS011;47366;51.916;4.574;2023-04-30T21:00:29;1.83;;;0.85;;
61505;SDS011;47366;51.916;4.574;2023-04-30T21:02:54;1.00;;;0.63;;
61505;SDS011;47366;51.916;4.574;2023-04-30T21:05:20;0.93;;;0.77;;
61505;SDS011;47366;51.916;4.574;2023-04-30T21:07:45;0.85;;;0.73;;
61505;SDS011;47366;51.916;4.574;2023-04-30T21:10:11;1.63;;;0.63;;
61505;SDS011;47366;51.916;4.574;2023-04-30T21:12:37;1.75;;;0.80;;
61505;SDS011;47366;51.916;4.574;2023-04-30T21:15:02;1.58;;;0.95;;
61505;SDS011;47366;51.916;4.574;2023-04-30T21:17:28;0.90;;;0.77;;
61505;SDS011;47366;51.916;4.574;2023-04-30T21:19:53;0.98;;;0.88;;
61505;SDS011;47366;51.916;4.574;2023-04-30T21:22:20;1.92;;;0.95;;
61505;SDS011;47366;51.916;4.574;2023-04-30T21:24:45;1.58;;;0.95;;
61505;SDS011;47366;51.916;4.574;2023-04-30T21:27:11;1.25;;;0.90;;
61505;SDS011;47366;51.916;4.574;2023-04-30T21:29:36;1.42;;;0.90;;
61505;SDS011;47366;51.916;4.574;2023-04-30T21:32:05;1.52;;;0.95;;
61505;SDS011;47366;51.916;4.574;2023-04-30T21:34:31;1.70;;;0.93;;
61505;SDS011;47366;51.916;4.574;2023-04-30T21:36:57;2.05;;;0.73;;
61505;SDS011;47366;51.916;4.574;2023-04-30T21:39:23;1.02;;;0.90;;
61505;SDS011;47366;51.916;4.574;2023-04-30T21:41:49;1.38;;;0.90;;
61505;SDS011;47366;51.916;4.574;2023-04-30T21:44:15;1.25;;;0.82;;
61505;SDS011;47366;51.916;4.574;2023-04-30T21:46:40;1.70;;;0.88;;